Brownstown, MI

02:03 AM EDT on July 30, 2015 (GMT -0400)
Timber Creek | | Change Station
CLOSE
Current Station
Personal Weather Stations
Location: Brownstown Charter Township, MI
Elevation: 615 ft
Nearby Weather Stations

Elev 615 ft 42.13 °N, 83.29 °W | Updated 34 seconds ago

Safi
Safi
63.9 °F
Feels Like 63.9 °F
N
0.0
Upepo Ya mabadiliko Upepo from Magharibi-Kusini-Magharibi (MgKMg) WSW
Gusts 0.0 mph

Leo
High -- | Low -- °F
--% Chance of Precip.
Yesterday
High -- | Low -- °F
Precip. -- nchi
6:24 AM 8:54 PM
Waxing Gibbous, 98% visible
Shinikizo 29.93 nchi
Mwangaza 10.0 meli
Clouds Safi
Kilele cha umande 61 °F
Unyevu 89%
Rainfall 0.00 nchi
Snow Depth Not available.
UV 0.0 out of 12
Pollen 2.80 out of 12
Air Quality Not available.
Flu Activity Not available.
METAR KONZ 300554Z AUTO 25005KT 10SM CLR 21/16 A2993 RMK AO2

More Conditions Fewer Conditions

Shinikizo 29.93 nchi
Mwangaza 10.0 meli
Clouds Safi
Kilele cha umande 61 °F
Unyevu 89%
Rainfall 0.00 nchi
Snow Depth Not available.
UV 0.0 out of 12
Pollen 2.80 out of 12
Air Quality Not available.
Flu Activity Not available.
METAR KONZ 300554Z AUTO 25005KT 10SM CLR 21/16 A2993 RMK AO2

More Conditions Fewer Conditions

10-Day Weather Forecast

×

Almanac

Astronomy

Jul. 30, 2015 Rise Set
Actual Time
Civil Twilight
Nautical Twilight
Astronomical Twilight
Moon
Length Of Visible Light
Length of Day
Tomorrow will be .
, % of the Moon is Illuminated

Today's Extremes

State Highs State Lows

Community

WunderPhotos

Upload Photos

1,842,312 photos uploaded!

WunderBlogs® & News

Nearby

Air Quality

  Air Quality AQ Index Pollutant
Not available.

Snow Depth

Station Depth Elevation

Earthquake Activity

City Distance Mag. Time & Date
Minimum magnitude displayed is 2.5.

Coastal Water Temperatures

Mahali Hali ya Hewa

Stations

Nearby Weather Stations

Station Location Temp Ubaridi wa upepo Kilele cha umande Unyevu Upepo Precip. Elev Imesharekibishwa Type